sensor_id;sensor_type;location;lat;lon;timestamp;P1;durP1;ratioP1;P2;durP2;ratioP2
19687;SDS011;9993;52.008;4.732;2023-01-05T00:01:12;15.37;;;5.17;;
19687;SDS011;9993;52.008;4.732;2023-01-05T00:03:38;22.57;;;4.90;;
19687;SDS011;9993;52.008;4.732;2023-01-05T00:06:06;26.20;;;5.30;;
19687;SDS011;9993;52.008;4.732;2023-01-05T00:08:31;18.33;;;4.70;;
19687;SDS011;9993;52.008;4.732;2023-01-05T00:10:56;25.73;;;4.80;;
19687;SDS011;9993;52.008;4.732;2023-01-05T00:13:40;19.87;;;4.37;;
19687;SDS011;9993;52.008;4.732;2023-01-05T00:16:24;24.07;;;4.77;;
19687;SDS011;9993;52.008;4.732;2023-01-05T00:19:11;23.13;;;4.77;;
19687;SDS011;9993;52.008;4.732;2023-01-05T00:21:56;19.17;;;5.27;;
19687;SDS011;9993;52.008;4.732;2023-01-05T00:24:42;23.23;;;4.83;;
19687;SDS011;9993;52.008;4.732;2023-01-05T00:27:08;24.20;;;4.93;;
19687;SDS011;9993;52.008;4.732;2023-01-05T00:29:33;23.10;;;5.53;;
19687;SDS011;9993;52.008;4.732;2023-01-05T00:31:58;17.07;;;4.47;;
19687;SDS011;9993;52.008;4.732;2023-01-05T00:34:23;25.93;;;4.90;;
19687;SDS011;9993;52.008;4.732;2023-01-05T00:36:48;20.30;;;4.83;;
19687;SDS011;9993;52.008;4.732;2023-01-05T00:39:14;25.03;;;4.93;;
19687;SDS011;9993;52.008;4.732;2023-01-05T00:41:39;21.17;;;4.97;;
19687;SDS011;9993;52.008;4.732;2023-01-05T00:44:05;22.53;;;5.63;;
19687;SDS011;9993;52.008;4.732;2023-01-05T00:46:32;22.83;;;4.50;;
19687;SDS011;9993;52.008;4.732;2023-01-05T00:48:57;25.10;;;4.80;;
19687;SDS011;9993;52.008;4.732;2023-01-05T00:51:22;16.03;;;4.50;;
19687;SDS011;9993;52.008;4.732;2023-01-05T00:53:47;20.43;;;5.07;;
19687;SDS011;9993;52.008;4.732;2023-01-05T00:56:13;22.43;;;5.83;;
19687;SDS011;9993;52.008;4.732;2023-01-05T00:58:38;17.57;;;5.13;;
19687;SDS011;9993;52.008;4.732;2023-01-05T01:01:14;19.17;;;4.63;;
19687;SDS011;9993;52.008;4.732;2023-01-05T01:03:39;19.00;;;4.90;;
19687;SDS011;9993;52.008;4.732;2023-01-05T01:06:05;21.03;;;4.50;;
19687;SDS011;9993;52.008;4.732;2023-01-05T01:08:30;21.60;;;4.83;;
19687;SDS011;9993;52.008;4.732;2023-01-05T01:11:04;22.83;;;6.03;;
19687;SDS011;9993;52.008;4.732;2023-01-05T01:13:30;17.90;;;4.73;;
19687;SDS011;9993;52.008;4.732;2023-01-05T01:15:55;21.73;;;5.17;;
19687;SDS011;9993;52.008;4.732;2023-01-05T01:18:23;22.27;;;4.80;;
19687;SDS011;9993;52.008;4.732;2023-01-05T01:20:48;24.03;;;4.97;;
19687;SDS011;9993;52.008;4.732;2023-01-05T01:23:13;18.23;;;5.20;;
19687;SDS011;9993;52.008;4.732;2023-01-05T01:25:39;22.47;;;4.63;;
19687;SDS011;9993;52.008;4.732;2023-01-05T01:28:04;30.87;;;5.67;;
19687;SDS011;9993;52.008;4.732;2023-01-05T01:30:29;15.93;;;4.63;;
19687;SDS011;9993;52.008;4.732;2023-01-05T01:32:55;16.80;;;4.83;;
19687;SDS011;9993;52.008;4.732;2023-01-05T01:35:20;25.57;;;5.63;;
19687;SDS011;9993;52.008;4.732;2023-01-05T01:37:45;21.73;;;5.60;;
19687;SDS011;9993;52.008;4.732;2023-01-05T01:40:11;22.53;;;5.57;;
19687;SDS011;9993;52.008;4.732;2023-01-05T01:42:37;27.10;;;5.43;;
19687;SDS011;9993;52.008;4.732;2023-01-05T01:48:01;27.80;;;6.87;;
19687;SDS011;9993;52.008;4.732;2023-01-05T01:52:57;17.57;;;4.73;;
19687;SDS011;9993;52.008;4.732;2023-01-05T01:55:25;19.67;;;5.20;;
19687;SDS011;9993;52.008;4.732;2023-01-05T01:57:50;34.40;;;6.40;;
19687;SDS011;9993;52.008;4.732;2023-01-05T02:00:16;21.27;;;4.83;;
19687;SDS011;9993;52.008;4.732;2023-01-05T02:02:42;16.77;;;5.20;;
19687;SDS011;9993;52.008;4.732;2023-01-05T02:05:09;21.70;;;4.93;;
19687;SDS011;9993;52.008;4.732;2023-01-05T02:07:36;20.60;;;5.03;;
19687;SDS011;9993;52.008;4.732;2023-01-05T02:10:02;22.30;;;4.90;;
19687;SDS011;9993;52.008;4.732;2023-01-05T02:12:42;20.33;;;4.90;;
19687;SDS011;9993;52.008;4.732;2023-01-05T02:15:23;23.93;;;4.67;;
19687;SDS011;9993;52.008;4.732;2023-01-05T02:20:36;16.47;;;4.83;;
19687;SDS011;9993;52.008;4.732;2023-01-05T02:40:02;16.63;;;4.70;;
19687;SDS011;9993;52.008;4.732;2023-01-05T02:42:29;17.03;;;4.47;;
19687;SDS011;9993;52.008;4.732;2023-01-05T02:44:57;19.40;;;5.53;;
19687;SDS011;9993;52.008;4.732;2023-01-05T02:49:49;17.53;;;5.43;;
19687;SDS011;9993;52.008;4.732;2023-01-05T02:52:15;20.17;;;4.70;;
19687;SDS011;9993;52.008;4.732;2023-01-05T02:54:43;17.17;;;4.73;;
19687;SDS011;9993;52.008;4.732;2023-01-05T02:57:15;16.33;;;4.83;;
19687;SDS011;9993;52.008;4.732;2023-01-05T02:59:45;22.70;;;5.20;;
19687;SDS011;9993;52.008;4.732;2023-01-05T03:02:14;22.33;;;5.47;;
19687;SDS011;9993;52.008;4.732;2023-01-05T03:04:45;20.70;;;4.33;;
19687;SDS011;9993;52.008;4.732;2023-01-05T03:07:12;18.60;;;4.50;;
19687;SDS011;9993;52.008;4.732;2023-01-05T03:09:38;20.53;;;4.80;;
19687;SDS011;9993;52.008;4.732;2023-01-05T03:12:14;16.20;;;4.10;;
19687;SDS011;9993;52.008;4.732;2023-01-05T03:15:04;17.97;;;4.47;;
19687;SDS011;9993;52.008;4.732;2023-01-05T03:17:35;15.60;;;3.80;;
19687;SDS011;9993;52.008;4.732;2023-01-05T03:20:03;15.83;;;4.57;;
19687;SDS011;9993;52.008;4.732;2023-01-05T03:22:29;15.43;;;4.73;;
19687;SDS011;9993;52.008;4.732;2023-01-05T03:25:14;25.13;;;4.80;;
19687;SDS011;9993;52.008;4.732;2023-01-05T03:27:59;20.23;;;4.57;;
19687;SDS011;9993;52.008;4.732;2023-01-05T03:36:40;21.73;;;4.63;;
19687;SDS011;9993;52.008;4.732;2023-01-05T03:39:08;15.53;;;4.57;;
19687;SDS011;9993;52.008;4.732;2023-01-05T03:41:34;17.10;;;4.77;;
19687;SDS011;9993;52.008;4.732;2023-01-05T03:44:00;18.07;;;4.67;;
19687;SDS011;9993;52.008;4.732;2023-01-05T03:46:25;20.37;;;5.07;;
19687;SDS011;9993;52.008;4.732;2023-01-05T03:48:51;15.60;;;4.33;;
19687;SDS011;9993;52.008;4.732;2023-01-05T03:51:17;16.13;;;3.57;;
19687;SDS011;9993;52.008;4.732;2023-01-05T03:53:43;17.10;;;4.63;;
19687;SDS011;9993;52.008;4.732;2023-01-05T03:56:08;22.23;;;4.50;;
19687;SDS011;9993;52.008;4.732;2023-01-05T03:58:33;21.20;;;4.67;;
19687;SDS011;9993;52.008;4.732;2023-01-05T04:00:58;14.67;;;5.00;;
19687;SDS011;9993;52.008;4.732;2023-01-05T04:03:24;19.33;;;3.63;;
19687;SDS011;9993;52.008;4.732;2023-01-05T04:05:49;23.80;;;4.83;;
19687;SDS011;9993;52.008;4.732;2023-01-05T04:08:14;18.47;;;4.27;;
19687;SDS011;9993;52.008;4.732;2023-01-05T04:10:40;19.13;;;4.73;;
19687;SDS011;9993;52.008;4.732;2023-01-05T04:13:06;23.47;;;5.17;;
19687;SDS011;9993;52.008;4.732;2023-01-05T04:15:31;20.70;;;4.77;;
19687;SDS011;9993;52.008;4.732;2023-01-05T04:17:56;21.93;;;4.83;;
19687;SDS011;9993;52.008;4.732;2023-01-05T04:20:21;22.83;;;4.77;;
19687;SDS011;9993;52.008;4.732;2023-01-05T04:22:46;18.47;;;4.93;;
19687;SDS011;9993;52.008;4.732;2023-01-05T04:25:11;21.13;;;4.80;;
19687;SDS011;9993;52.008;4.732;2023-01-05T04:27:37;18.47;;;4.93;;
19687;SDS011;9993;52.008;4.732;2023-01-05T04:30:02;25.13;;;4.77;;
19687;SDS011;9993;52.008;4.732;2023-01-05T04:32:27;20.27;;;5.20;;
19687;SDS011;9993;52.008;4.732;2023-01-05T04:34:53;16.47;;;4.97;;
19687;SDS011;9993;52.008;4.732;2023-01-05T04:37:18;21.50;;;5.23;;
19687;SDS011;9993;52.008;4.732;2023-01-05T04:39:43;16.80;;;4.17;;
19687;SDS011;9993;52.008;4.732;2023-01-05T04:42:08;22.10;;;5.07;;
19687;SDS011;9993;52.008;4.732;2023-01-05T04:44:33;20.87;;;4.83;;
19687;SDS011;9993;52.008;4.732;2023-01-05T04:46:58;24.83;;;5.70;;
19687;SDS011;9993;52.008;4.732;2023-01-05T04:49:24;17.70;;;4.43;;
19687;SDS011;9993;52.008;4.732;2023-01-05T04:51:49;21.97;;;5.67;;
19687;SDS011;9993;52.008;4.732;2023-01-05T04:54:14;17.73;;;4.60;;
19687;SDS011;9993;52.008;4.732;2023-01-05T04:56:39;15.77;;;4.27;;
19687;SDS011;9993;52.008;4.732;2023-01-05T04:59:05;21.37;;;5.43;;
19687;SDS011;9993;52.008;4.732;2023-01-05T05:01:30;23.30;;;5.20;;
19687;SDS011;9993;52.008;4.732;2023-01-05T05:03:55;28.80;;;5.77;;
19687;SDS011;9993;52.008;4.732;2023-01-05T05:06:20;22.57;;;4.67;;
19687;SDS011;9993;52.008;4.732;2023-01-05T05:08:46;15.80;;;4.50;;
19687;SDS011;9993;52.008;4.732;2023-01-05T05:11:11;16.70;;;5.03;;
19687;SDS011;9993;52.008;4.732;2023-01-05T05:13:36;22.77;;;5.20;;
19687;SDS011;9993;52.008;4.732;2023-01-05T05:16:01;13.13;;;4.37;;
19687;SDS011;9993;52.008;4.732;2023-01-05T05:18:26;19.50;;;4.43;;
19687;SDS011;9993;52.008;4.732;2023-01-05T05:20:55;19.90;;;4.90;;
19687;SDS011;9993;52.008;4.732;2023-01-05T05:23:20;28.10;;;5.43;;
19687;SDS011;9993;52.008;4.732;2023-01-05T05:25:49;24.03;;;4.73;;
19687;SDS011;9993;52.008;4.732;2023-01-05T05:28:15;21.73;;;4.97;;
19687;SDS011;9993;52.008;4.732;2023-01-05T05:30:40;24.87;;;5.13;;
19687;SDS011;9993;52.008;4.732;2023-01-05T05:33:05;19.57;;;4.67;;
19687;SDS011;9993;52.008;4.732;2023-01-05T05:35:30;23.50;;;5.53;;
19687;SDS011;9993;52.008;4.732;2023-01-05T05:37:56;27.80;;;5.27;;
19687;SDS011;9993;52.008;4.732;2023-01-05T05:40:21;22.87;;;4.53;;
19687;SDS011;9993;52.008;4.732;2023-01-05T05:42:46;28.43;;;4.47;;
19687;SDS011;9993;52.008;4.732;2023-01-05T05:45:11;21.97;;;5.20;;
19687;SDS011;9993;52.008;4.732;2023-01-05T05:47:36;22.70;;;5.33;;
19687;SDS011;9993;52.008;4.732;2023-01-05T05:50:02;26.17;;;5.17;;
19687;SDS011;9993;52.008;4.732;2023-01-05T05:52:28;16.03;;;5.13;;
19687;SDS011;9993;52.008;4.732;2023-01-05T05:54:53;19.90;;;5.03;;
19687;SDS011;9993;52.008;4.732;2023-01-05T05:57:18;18.70;;;5.40;;
19687;SDS011;9993;52.008;4.732;2023-01-05T05:59:43;21.13;;;4.97;;
19687;SDS011;9993;52.008;4.732;2023-01-05T06:02:09;26.93;;;5.63;;
19687;SDS011;9993;52.008;4.732;2023-01-05T06:04:34;20.47;;;5.27;;
19687;SDS011;9993;52.008;4.732;2023-01-05T06:06:59;19.47;;;5.00;;
19687;SDS011;9993;52.008;4.732;2023-01-05T06:09:24;18.17;;;4.93;;
19687;SDS011;9993;52.008;4.732;2023-01-05T06:11:50;20.80;;;4.17;;
19687;SDS011;9993;52.008;4.732;2023-01-05T06:14:15;19.90;;;5.17;;
19687;SDS011;9993;52.008;4.732;2023-01-05T06:16:41;27.60;;;6.07;;
19687;SDS011;9993;52.008;4.732;2023-01-05T06:19:07;18.67;;;4.90;;
19687;SDS011;9993;52.008;4.732;2023-01-05T06:21:32;22.97;;;4.87;;
19687;SDS011;9993;52.008;4.732;2023-01-05T06:23:58;25.10;;;5.47;;
19687;SDS011;9993;52.008;4.732;2023-01-05T06:26:24;20.70;;;4.87;;
19687;SDS011;9993;52.008;4.732;2023-01-05T06:28:49;19.87;;;4.80;;
19687;SDS011;9993;52.008;4.732;2023-01-05T06:31:15;22.90;;;5.47;;
19687;SDS011;9993;52.008;4.732;2023-01-05T06:33:40;12.80;;;3.87;;
19687;SDS011;9993;52.008;4.732;2023-01-05T06:36:05;20.83;;;5.60;;
19687;SDS011;9993;52.008;4.732;2023-01-05T06:38:32;22.60;;;5.03;;
19687;SDS011;9993;52.008;4.732;2023-01-05T06:40:57;20.80;;;5.30;;
19687;SDS011;9993;52.008;4.732;2023-01-05T06:43:24;21.67;;;4.57;;
19687;SDS011;9993;52.008;4.732;2023-01-05T06:45:49;17.07;;;4.70;;
19687;SDS011;9993;52.008;4.732;2023-01-05T06:48:14;21.60;;;4.37;;
19687;SDS011;9993;52.008;4.732;2023-01-05T06:50:39;19.37;;;4.40;;
19687;SDS011;9993;52.008;4.732;2023-01-05T06:53:04;26.87;;;5.03;;
19687;SDS011;9993;52.008;4.732;2023-01-05T06:55:30;20.87;;;4.70;;
19687;SDS011;9993;52.008;4.732;2023-01-05T06:57:55;18.73;;;5.20;;
19687;SDS011;9993;52.008;4.732;2023-01-05T07:00:20;17.97;;;5.33;;
19687;SDS011;9993;52.008;4.732;2023-01-05T07:02:46;24.60;;;5.30;;
19687;SDS011;9993;52.008;4.732;2023-01-05T07:05:11;21.20;;;5.60;;
19687;SDS011;9993;52.008;4.732;2023-01-05T07:07:36;25.60;;;4.83;;
19687;SDS011;9993;52.008;4.732;2023-01-05T07:10:02;14.17;;;4.90;;
19687;SDS011;9993;52.008;4.732;2023-01-05T07:12:27;26.37;;;4.90;;
19687;SDS011;9993;52.008;4.732;2023-01-05T07:14:52;18.20;;;5.30;;
19687;SDS011;9993;52.008;4.732;2023-01-05T07:17:18;23.13;;;5.33;;
19687;SDS011;9993;52.008;4.732;2023-01-05T07:19:43;14.60;;;3.97;;
19687;SDS011;9993;52.008;4.732;2023-01-05T07:22:08;21.87;;;4.73;;
19687;SDS011;9993;52.008;4.732;2023-01-05T07:24:35;16.67;;;4.10;;
19687;SDS011;9993;52.008;4.732;2023-01-05T07:27:03;19.67;;;4.10;;
19687;SDS011;9993;52.008;4.732;2023-01-05T07:29:28;23.20;;;4.57;;
19687;SDS011;9993;52.008;4.732;2023-01-05T07:31:53;25.97;;;5.27;;
19687;SDS011;9993;52.008;4.732;2023-01-05T07:34:19;19.60;;;5.83;;
19687;SDS011;9993;52.008;4.732;2023-01-05T07:36:44;16.13;;;4.33;;
19687;SDS011;9993;52.008;4.732;2023-01-05T07:39:09;18.03;;;4.93;;
19687;SDS011;9993;52.008;4.732;2023-01-05T07:41:35;13.37;;;4.10;;
19687;SDS011;9993;52.008;4.732;2023-01-05T07:44:00;22.97;;;4.97;;
19687;SDS011;9993;52.008;4.732;2023-01-05T07:46:25;19.43;;;4.20;;
19687;SDS011;9993;52.008;4.732;2023-01-05T07:48:50;24.20;;;4.60;;
19687;SDS011;9993;52.008;4.732;2023-01-05T07:51:16;20.80;;;4.90;;
19687;SDS011;9993;52.008;4.732;2023-01-05T07:53:42;27.40;;;5.43;;
19687;SDS011;9993;52.008;4.732;2023-01-05T07:56:08;21.60;;;4.67;;
19687;SDS011;9993;52.008;4.732;2023-01-05T07:58:33;25.17;;;5.13;;
19687;SDS011;9993;52.008;4.732;2023-01-05T08:01:11;21.87;;;5.37;;
19687;SDS011;9993;52.008;4.732;2023-01-05T08:03:46;19.10;;;4.67;;
19687;SDS011;9993;52.008;4.732;2023-01-05T08:06:17;24.50;;;5.73;;
19687;SDS011;9993;52.008;4.732;2023-01-05T08:08:45;23.33;;;5.10;;
19687;SDS011;9993;52.008;4.732;2023-01-05T08:11:11;27.30;;;5.33;;
19687;SDS011;9993;52.008;4.732;2023-01-05T08:13:36;19.47;;;5.53;;
19687;SDS011;9993;52.008;4.732;2023-01-05T08:16:20;22.37;;;5.37;;
19687;SDS011;9993;52.008;4.732;2023-01-05T08:18:46;26.90;;;5.00;;
19687;SDS011;9993;52.008;4.732;2023-01-05T08:21:11;23.10;;;5.73;;
19687;SDS011;9993;52.008;4.732;2023-01-05T08:23:37;20.93;;;4.23;;
19687;SDS011;9993;52.008;4.732;2023-01-05T08:26:06;27.17;;;4.30;;
19687;SDS011;9993;52.008;4.732;2023-01-05T08:28:31;23.93;;;4.43;;
19687;SDS011;9993;52.008;4.732;2023-01-05T08:31:00;18.60;;;4.30;;
19687;SDS011;9993;52.008;4.732;2023-01-05T08:33:25;26.87;;;5.87;;
19687;SDS011;9993;52.008;4.732;2023-01-05T08:35:50;21.90;;;4.90;;
19687;SDS011;9993;52.008;4.732;2023-01-05T08:38:15;31.60;;;5.97;;
19687;SDS011;9993;52.008;4.732;2023-01-05T08:40:41;24.67;;;5.17;;
19687;SDS011;9993;52.008;4.732;2023-01-05T08:43:06;29.70;;;4.67;;
19687;SDS011;9993;52.008;4.732;2023-01-05T08:45:31;21.37;;;4.83;;
19687;SDS011;9993;52.008;4.732;2023-01-05T08:47:57;17.93;;;3.73;;
19687;SDS011;9993;52.008;4.732;2023-01-05T08:50:22;24.50;;;5.30;;
19687;SDS011;9993;52.008;4.732;2023-01-05T08:52:47;18.00;;;4.37;;
19687;SDS011;9993;52.008;4.732;2023-01-05T08:55:12;18.50;;;5.30;;
19687;SDS011;9993;52.008;4.732;2023-01-05T08:57:38;21.37;;;4.97;;
19687;SDS011;9993;52.008;4.732;2023-01-05T09:00:03;18.73;;;4.93;;
19687;SDS011;9993;52.008;4.732;2023-01-05T09:02:28;20.67;;;5.30;;
19687;SDS011;9993;52.008;4.732;2023-01-05T09:04:53;20.37;;;5.33;;
19687;SDS011;9993;52.008;4.732;2023-01-05T09:07:21;20.83;;;5.57;;
19687;SDS011;9993;52.008;4.732;2023-01-05T09:09:46;25.47;;;5.33;;
19687;SDS011;9993;52.008;4.732;2023-01-05T09:12:11;11.73;;;3.93;;
19687;SDS011;9993;52.008;4.732;2023-01-05T09:14:37;13.40;;;4.00;;
19687;SDS011;9993;52.008;4.732;2023-01-05T09:17:02;18.40;;;4.33;;
19687;SDS011;9993;52.008;4.732;2023-01-05T09:19:27;17.27;;;4.77;;
19687;SDS011;9993;52.008;4.732;2023-01-05T09:21:52;23.27;;;5.13;;
19687;SDS011;9993;52.008;4.732;2023-01-05T09:24:18;25.57;;;5.33;;
19687;SDS011;9993;52.008;4.732;2023-01-05T09:26:43;20.90;;;4.73;;
19687;SDS011;9993;52.008;4.732;2023-01-05T09:29:09;21.13;;;4.70;;
19687;SDS011;9993;52.008;4.732;2023-01-05T09:31:34;15.27;;;4.53;;
19687;SDS011;9993;52.008;4.732;2023-01-05T09:33:59;23.57;;;4.60;;
19687;SDS011;9993;52.008;4.732;2023-01-05T09:36:25;16.43;;;4.67;;
19687;SDS011;9993;52.008;4.732;2023-01-05T09:38:51;21.10;;;5.30;;
19687;SDS011;9993;52.008;4.732;2023-01-05T09:41:19;16.57;;;4.83;;
19687;SDS011;9993;52.008;4.732;2023-01-05T09:43:46;18.87;;;5.53;;
19687;SDS011;9993;52.008;4.732;2023-01-05T09:46:16;20.80;;;4.90;;
19687;SDS011;9993;52.008;4.732;2023-01-05T09:48:45;19.97;;;4.60;;
19687;SDS011;9993;52.008;4.732;2023-01-05T09:51:12;17.67;;;4.67;;
19687;SDS011;9993;52.008;4.732;2023-01-05T09:53:37;26.03;;;5.13;;
19687;SDS011;9993;52.008;4.732;2023-01-05T09:56:05;23.50;;;4.80;;
19687;SDS011;9993;52.008;4.732;2023-01-05T09:58:35;20.93;;;5.50;;
19687;SDS011;9993;52.008;4.732;2023-01-05T10:01:04;23.63;;;5.07;;
19687;SDS011;9993;52.008;4.732;2023-01-05T10:03:31;12.00;;;4.83;;
19687;SDS011;9993;52.008;4.732;2023-01-05T10:06:00;18.63;;;4.47;;
19687;SDS011;9993;52.008;4.732;2023-01-05T10:11:04;21.07;;;5.57;;
19687;SDS011;9993;52.008;4.732;2023-01-05T10:14:09;16.87;;;4.70;;
19687;SDS011;9993;52.008;4.732;2023-01-05T10:16:36;20.53;;;4.70;;
19687;SDS011;9993;52.008;4.732;2023-01-05T10:19:02;17.77;;;4.93;;
19687;SDS011;9993;52.008;4.732;2023-01-05T10:21:33;17.87;;;4.47;;
19687;SDS011;9993;52.008;4.732;2023-01-05T10:26:27;21.17;;;5.43;;
19687;SDS011;9993;52.008;4.732;2023-01-05T10:29:11;20.03;;;4.90;;
19687;SDS011;9993;52.008;4.732;2023-01-05T10:34:22;19.97;;;4.00;;
19687;SDS011;9993;52.008;4.732;2023-01-05T10:36:58;21.03;;;5.40;;
19687;SDS011;9993;52.008;4.732;2023-01-05T10:39:40;20.33;;;4.83;;
19687;SDS011;9993;52.008;4.732;2023-01-05T10:42:10;27.00;;;4.93;;
19687;SDS011;9993;52.008;4.732;2023-01-05T10:44:57;22.57;;;5.07;;
19687;SDS011;9993;52.008;4.732;2023-01-05T10:47:23;20.77;;;4.90;;
19687;SDS011;9993;52.008;4.732;2023-01-05T10:49:50;19.47;;;4.70;;
19687;SDS011;9993;52.008;4.732;2023-01-05T10:52:16;17.40;;;4.73;;
19687;SDS011;9993;52.008;4.732;2023-01-05T10:54:43;23.00;;;5.27;;
19687;SDS011;9993;52.008;4.732;2023-01-05T10:59:53;18.40;;;4.10;;
19687;SDS011;9993;52.008;4.732;2023-01-05T11:02:19;18.50;;;5.43;;
19687;SDS011;9993;52.008;4.732;2023-01-05T11:04:47;23.27;;;5.63;;
19687;SDS011;9993;52.008;4.732;2023-01-05T11:07:13;26.07;;;5.37;;
19687;SDS011;9993;52.008;4.732;2023-01-05T11:09:39;23.57;;;6.43;;
19687;SDS011;9993;52.008;4.732;2023-01-05T11:12:04;22.67;;;4.73;;
19687;SDS011;9993;52.008;4.732;2023-01-05T11:14:34;25.37;;;5.10;;
19687;SDS011;9993;52.008;4.732;2023-01-05T11:17:05;23.93;;;4.80;;
19687;SDS011;9993;52.008;4.732;2023-01-05T11:19:34;23.23;;;5.43;;
19687;SDS011;9993;52.008;4.732;2023-01-05T11:22:00;22.20;;;5.00;;
19687;SDS011;9993;52.008;4.732;2023-01-05T11:24:27;14.87;;;4.70;;
19687;SDS011;9993;52.008;4.732;2023-01-05T11:26:53;18.57;;;4.70;;
19687;SDS011;9993;52.008;4.732;2023-01-05T11:29:20;23.63;;;5.73;;
19687;SDS011;9993;52.008;4.732;2023-01-05T11:31:51;15.80;;;4.50;;
19687;SDS011;9993;52.008;4.732;2023-01-05T11:36:58;18.87;;;5.07;;
19687;SDS011;9993;52.008;4.732;2023-01-05T11:39:36;23.95;;;5.55;;
19687;SDS011;9993;52.008;4.732;2023-01-05T11:42:12;20.60;;;5.13;;
19687;SDS011;9993;52.008;4.732;2023-01-05T11:44:40;17.83;;;5.35;;
19687;SDS011;9993;52.008;4.732;2023-01-05T11:47:06;20.10;;;5.68;;
19687;SDS011;9993;52.008;4.732;2023-01-05T11:49:32;23.40;;;5.68;;
19687;SDS011;9993;52.008;4.732;2023-01-05T11:51:57;23.17;;;5.75;;
19687;SDS011;9993;52.008;4.732;2023-01-05T11:59:52;18.02;;;4.22;;
19687;SDS011;9993;52.008;4.732;2023-01-05T12:04:58;23.55;;;5.78;;
19687;SDS011;9993;52.008;4.732;2023-01-05T12:07:29;23.30;;;5.03;;
19687;SDS011;9993;52.008;4.732;2023-01-05T12:09:57;20.55;;;5.05;;
19687;SDS011;9993;52.008;4.732;2023-01-05T12:17:44;21.90;;;4.80;;
19687;SDS011;9993;52.008;4.732;2023-01-05T12:25:34;25.20;;;5.10;;
19687;SDS011;9993;52.008;4.732;2023-01-05T12:30:50;17.40;;;5.17;;
19687;SDS011;9993;52.008;4.732;2023-01-05T12:38:46;20.37;;;4.57;;
19687;SDS011;9993;52.008;4.732;2023-01-05T12:44:00;18.37;;;4.67;;
19687;SDS011;9993;52.008;4.732;2023-01-05T12:49:13;21.40;;;4.77;;
19687;SDS011;9993;52.008;4.732;2023-01-05T12:51:46;17.80;;;4.37;;
19687;SDS011;9993;52.008;4.732;2023-01-05T12:54:26;17.30;;;4.47;;
19687;SDS011;9993;52.008;4.732;2023-01-05T12:56:54;22.65;;;5.55;;
19687;SDS011;9993;52.008;4.732;2023-01-05T12:59:23;19.63;;;4.75;;
19687;SDS011;9993;52.008;4.732;2023-01-05T13:01:57;20.48;;;4.95;;
19687;SDS011;9993;52.008;4.732;2023-01-05T13:06:49;18.97;;;4.73;;
19687;SDS011;9993;52.008;4.732;2023-01-05T13:09:17;19.23;;;5.10;;
19687;SDS011;9993;52.008;4.732;2023-01-05T13:14:16;23.57;;;5.53;;
19687;SDS011;9993;52.008;4.732;2023-01-05T13:16:44;21.30;;;5.03;;
19687;SDS011;9993;52.008;4.732;2023-01-05T13:19:17;18.77;;;4.47;;
19687;SDS011;9993;52.008;4.732;2023-01-05T13:21:43;23.40;;;5.07;;
19687;SDS011;9993;52.008;4.732;2023-01-05T13:24:11;22.58;;;5.60;;
19687;SDS011;9993;52.008;4.732;2023-01-05T13:26:38;19.30;;;4.63;;
19687;SDS011;9993;52.008;4.732;2023-01-05T13:29:04;15.37;;;4.40;;
19687;SDS011;9993;52.008;4.732;2023-01-05T13:34:10;24.03;;;5.83;;
19687;SDS011;9993;52.008;4.732;2023-01-05T13:44:14;17.80;;;4.47;;
19687;SDS011;9993;52.008;4.732;2023-01-05T13:47:04;19.67;;;5.07;;
19687;SDS011;9993;52.008;4.732;2023-01-05T13:52:08;18.03;;;4.60;;
19687;SDS011;9993;52.008;4.732;2023-01-05T13:54:51;25.77;;;6.00;;
19687;SDS011;9993;52.008;4.732;2023-01-05T13:57:21;12.73;;;4.20;;
19687;SDS011;9993;52.008;4.732;2023-01-05T13:59:47;23.50;;;5.77;;
19687;SDS011;9993;52.008;4.732;2023-01-05T14:02:34;30.17;;;5.87;;
19687;SDS011;9993;52.008;4.732;2023-01-05T14:05:08;23.80;;;5.93;;
19687;SDS011;9993;52.008;4.732;2023-01-05T14:07:38;20.13;;;5.10;;
19687;SDS011;9993;52.008;4.732;2023-01-05T14:10:04;29.57;;;5.87;;
19687;SDS011;9993;52.008;4.732;2023-01-05T14:12:41;26.23;;;5.37;;
19687;SDS011;9993;52.008;4.732;2023-01-05T14:28:20;17.77;;;5.40;;
19687;SDS011;9993;52.008;4.732;2023-01-05T14:30:50;21.93;;;5.37;;
19687;SDS011;9993;52.008;4.732;2023-01-05T14:33:17;25.93;;;6.00;;
19687;SDS011;9993;52.008;4.732;2023-01-05T14:35:43;20.83;;;4.47;;
19687;SDS011;9993;52.008;4.732;2023-01-05T14:43:52;24.90;;;5.17;;
19687;SDS011;9993;52.008;4.732;2023-01-05T14:46:01;24.47;;;6.60;;
19687;SDS011;9993;52.008;4.732;2023-01-05T14:48:31;25.67;;;5.57;;
19687;SDS011;9993;52.008;4.732;2023-01-05T14:53:43;17.20;;;5.33;;
19687;SDS011;9993;52.008;4.732;2023-01-05T15:09:33;20.03;;;5.13;;
19687;SDS011;9993;52.008;4.732;2023-01-05T15:15:02;23.43;;;4.90;;
19687;SDS011;9993;52.008;4.732;2023-01-05T15:36:29;13.90;;;4.00;;
19687;SDS011;9993;52.008;4.732;2023-01-05T15:38:55;22.33;;;4.77;;
19687;SDS011;9993;52.008;4.732;2023-01-05T15:41:21;20.40;;;4.20;;
19687;SDS011;9993;52.008;4.732;2023-01-05T15:43:47;18.30;;;3.93;;
19687;SDS011;9993;52.008;4.732;2023-01-05T15:46:16;14.13;;;4.37;;
19687;SDS011;9993;52.008;4.732;2023-01-05T15:48:42;17.00;;;3.73;;
19687;SDS011;9993;52.008;4.732;2023-01-05T15:51:08;11.37;;;3.90;;
19687;SDS011;9993;52.008;4.732;2023-01-05T15:53:35;20.03;;;3.67;;
19687;SDS011;9993;52.008;4.732;2023-01-05T15:56:02;11.10;;;3.50;;
19687;SDS011;9993;52.008;4.732;2023-01-05T15:58:29;13.77;;;4.47;;
19687;SDS011;9993;52.008;4.732;2023-01-05T16:01:11;16.80;;;3.90;;
19687;SDS011;9993;52.008;4.732;2023-01-05T16:03:37;17.20;;;4.70;;
19687;SDS011;9993;52.008;4.732;2023-01-05T16:06:07;18.43;;;4.40;;
19687;SDS011;9993;52.008;4.732;2023-01-05T16:08:35;13.87;;;4.47;;
19687;SDS011;9993;52.008;4.732;2023-01-05T16:11:04;22.53;;;7.37;;
19687;SDS011;9993;52.008;4.732;2023-01-05T16:16:19;9.67;;;5.03;;
19687;SDS011;9993;52.008;4.732;2023-01-05T16:18:48;12.63;;;4.87;;
19687;SDS011;9993;52.008;4.732;2023-01-05T16:23:53;14.20;;;5.87;;
19687;SDS011;9993;52.008;4.732;2023-01-05T16:26:19;16.97;;;6.90;;
19687;SDS011;9993;52.008;4.732;2023-01-05T16:28:45;16.67;;;7.30;;
19687;SDS011;9993;52.008;4.732;2023-01-05T16:31:14;25.27;;;8.87;;
19687;SDS011;9993;52.008;4.732;2023-01-05T16:33:46;19.43;;;8.40;;
19687;SDS011;9993;52.008;4.732;2023-01-05T16:36:24;23.47;;;8.77;;
19687;SDS011;9993;52.008;4.732;2023-01-05T16:38:50;28.93;;;11.07;;
19687;SDS011;9993;52.008;4.732;2023-01-05T16:41:19;24.07;;;9.67;;
19687;SDS011;9993;52.008;4.732;2023-01-05T16:51:10;25.53;;;12.67;;
19687;SDS011;9993;52.008;4.732;2023-01-05T16:53:43;33.83;;;12.63;;
19687;SDS011;9993;52.008;4.732;2023-01-05T16:56:18;32.40;;;12.57;;
19687;SDS011;9993;52.008;4.732;2023-01-05T16:58:44;32.57;;;13.50;;
19687;SDS011;9993;52.008;4.732;2023-01-05T17:03:47;28.93;;;12.43;;
19687;SDS011;9993;52.008;4.732;2023-01-05T17:06:19;25.20;;;11.77;;
19687;SDS011;9993;52.008;4.732;2023-01-05T17:08:45;26.73;;;11.73;;
19687;SDS011;9993;52.008;4.732;2023-01-05T17:11:10;33.47;;;14.33;;
19687;SDS011;9993;52.008;4.732;2023-01-05T17:13:46;28.80;;;12.60;;
19687;SDS011;9993;52.008;4.732;2023-01-05T17:16:12;27.03;;;13.17;;
19687;SDS011;9993;52.008;4.732;2023-01-05T17:18:38;34.73;;;13.30;;
19687;SDS011;9993;52.008;4.732;2023-01-05T17:21:03;28.83;;;12.27;;
19687;SDS011;9993;52.008;4.732;2023-01-05T17:23:32;28.30;;;12.73;;
19687;SDS011;9993;52.008;4.732;2023-01-05T17:26:02;26.10;;;13.17;;
19687;SDS011;9993;52.008;4.732;2023-01-05T17:28:28;34.50;;;13.37;;
19687;SDS011;9993;52.008;4.732;2023-01-05T17:30:54;29.00;;;12.83;;
19687;SDS011;9993;52.008;4.732;2023-01-05T17:33:19;26.63;;;13.67;;
19687;SDS011;9993;52.008;4.732;2023-01-05T17:35:44;28.40;;;12.73;;
19687;SDS011;9993;52.008;4.732;2023-01-05T17:38:10;26.10;;;12.23;;
19687;SDS011;9993;52.008;4.732;2023-01-05T17:40:35;28.60;;;12.30;;